Latonia, Kentucky
Current Conditions -  °F | °C
As of 2:38 PM on Thursday 27 Nov 2014 (Local Time) from KI69 Reporting Station
Overcast Overcast  
Wind Chill: 25°   Ceiling: 3100
Heat Index: 34°   Visibility: 10mi
Dew Point: 23°   Wind: 12mph
Humidity: 65%   Direction: 290°WNW
Pressure: 30.28"   Gusts: NA
Location:  39.05°N, 84.51°W
Report Text: KI69 271938Z AUTO 29010KT 10SM BKN031 OVC037 01/M05 A3028 RMK AO1
Loading
Personal Weather Stations






























Interactive Weather Map New forecast layout! Learn more

10-Day Weather Forecast

Advertisements
Track Severe Weather on mobile